• Join FlightAware (Why Join?)
  • Login
  • US Flag 
02:37AM EDT


 

Airport Tracker/Info


-or-


 

Live Flight TrackerFlight Track Log ✈ GGA1 ✈ 21-Apr-2013 ✈ KAHN - KBHM

Flight Track Log - Related Links

Times and Time Zones

All times are in EDT time to prevent confusion due to time zone crossing. See the GGA1 flight status page for this flight to view local times or setup timezone preferences in your user account.

Time Position Orientation Groundspeed Altitude Reporting Facility
EDT Latitude Longitude Course Direction KTS MPH feet Rate Location/Type
05:08PM 33.9714 -83.2897 31° Northeast 104 120 3,800  Level Atlanta Center
05:10PM 34.0303 -83.3694 312° West 121 139 16,000 4,020 Climbing Atlanta Center
05:11PM 34.0619 -83.4044 318° Northwest 156 180 16,000  Level Atlanta Center
05:12PM 34.0453 -83.4472 245° Southwest 131 151 16,000  Level Atlanta Center
05:13PM 33.9833 -83.6466 270° West  Level FlightAware Approximate
05:13PM 34.0247 -83.4975 244° Southwest 149 171 16,000  Level Atlanta Center
05:14PM 34.0000 -83.5453 238° Southwest 181 208 16,000  Level Atlanta Center
05:15PM 33.9750 -83.6206 248° West 207 238 16,000  Level Atlanta Center
05:16PM 33.9461 -83.6883 243° Southwest 232 267 16,000  Level Atlanta Center
05:17PM 33.9150 -83.7608 243° Southwest 238 274 16,000  Level Atlanta Center
05:18PM 33.8858 -83.8286 243° Southwest 238 274 16,000  Level Atlanta Center
05:19PM 33.8567 -83.8986 243° Southwest 238 274 16,000  Level Atlanta Center
05:20PM 33.8275 -83.9689 243° Southwest 238 274 16,000  Level Atlanta Center
05:21PM 33.7983 -84.0389 243° Southwest 238 274 16,000  Level Atlanta Center
05:22PM 33.7692 -84.1114 244° Southwest 238 274 16,000  Level Atlanta Center
05:23PM 33.7419 -84.1711 241° Southwest 238 274 16,000  Level Atlanta Center
05:24PM 33.7106 -84.2411 242° Southwest 238 274 16,000  Level Atlanta Center
05:25PM 33.6833 -84.3083 244° Southwest 238 274 16,000  Level Atlanta Center
05:26PM 33.6519 -84.3808 243° Southwest 238 274 16,000  Level Atlanta Center
05:27PM 33.6244 -84.4506 245° Southwest 238 274 16,000  Level Atlanta Center
05:28PM 33.6283 -84.5403 273° West 268 308 16,000  Level Atlanta Center
05:29PM 33.6281 -84.6250 270° West 251 289 16,000  Level Atlanta Center
05:30PM 33.6275 -84.7025 270° West 246 283 16,000  Level Atlanta Center
05:31PM 33.6272 -84.7747 270° West 246 283 16,000  Level Atlanta Center
05:32PM 33.6225 -84.8619 266° West 246 283 16,000  Level Atlanta Center
05:33PM 33.6197 -84.9419 268° West 246 283 16,000  Level Atlanta Center
05:34PM 33.6172 -85.0142 268° West 246 283 16,000  Level Atlanta Center
05:35PM 33.6167 -85.0914 270° West 246 283 16,000  Level Atlanta Center
05:36PM 33.6136 -85.1714 267° West 241 277 16,000  Level Atlanta Center
05:37PM 33.6131 -85.2511 270° West 241 277 16,000  Level Atlanta Center
05:38PM 33.6100 -85.3308 267° West 241 277 16,000  Level Atlanta Center
05:39PM 33.6092 -85.4181 269° West 241 277 16,000 -300 Level Atlanta Center
05:40PM 33.6039 -85.5003 266° West 235 270 15,400 -780 Descending Atlanta Center
05:41PM 33.6050 -85.5853 271° West 246 283 14,500 -960 Descending Atlanta Center
05:42PM 33.6039 -85.6750 269° West 261 300 13,500 -1,020 Descending Atlanta Center
05:43PM 33.5967 -85.7372 262° West 259 298 12,800 -1,020 Descending Atlanta Center
05:44PM 33.5933 -85.8319 268° West 262 302 11,700 -840 Descending Atlanta Center
05:45PM 33.5919 -85.9242 269° West 261 300 11,000 -360 Descending Atlanta Center
05:46PM 33.5883 -86.0289 268° West 247 284 11,000  Level Atlanta Center
05:47PM 33.5872 -86.0836 269° West 248 285 11,000  Level Atlanta Center
05:48PM 33.5672 -86.1653 254° West 248 285 11,000  Level Atlanta Center
05:49PM 33.5556 -86.2400 259° West 244 281 11,000 -600 Level Atlanta Center
05:50PM 33.5350 -86.3367 256° West 263 303 9,900 -1,200 Descending Atlanta Center
05:51PM 33.5231 -86.4111 259° West 273 314 8,700 -1,440 Descending Atlanta Center
05:52PM 33.5067 -86.5028 258° West 277 319 7,000 -1,620 Descending Atlanta Center
05:53PM 33.5086 -86.6150 271° West 280 322 5,200 -1,680 Descending Atlanta Center
05:54PM 33.5089 -86.6997 270° West 245 282 3,500 -1,740 Descending Atlanta Center
05:55PM 33.5264 -86.7500 293° West 149 171 1,700 -1,800 Descending Atlanta Center
05:57PM 33.5500 -86.7500 270° West  Level FlightAware Approximate
06:04PM 33.5639 -86.7523 270° West  Level Estimated